sensor_id;sensor_type;location;lat;lon;timestamp;P1;durP1;ratioP1;P2;durP2;ratioP2
42226;SDS011;27892;52.378;13.122;2023-07-31T00:00:24;1.40;;;1.30;;
42226;SDS011;27892;52.378;13.122;2023-07-31T00:05:17;1.00;;;1.00;;
42226;SDS011;27892;52.378;13.122;2023-07-31T00:07:43;1.40;;;1.30;;
42226;SDS011;27892;52.378;13.122;2023-07-31T00:10:09;1.13;;;1.13;;
42226;SDS011;27892;52.378;13.122;2023-07-31T00:12:34;1.60;;;1.50;;
42226;SDS011;27892;52.378;13.122;2023-07-31T00:15:01;2.07;;;1.60;;
42226;SDS011;27892;52.378;13.122;2023-07-31T00:17:27;2.10;;;1.63;;
42226;SDS011;27892;52.378;13.122;2023-07-31T00:19:53;2.17;;;1.50;;
42226;SDS011;27892;52.378;13.122;2023-07-31T00:22:19;1.70;;;1.60;;
42226;SDS011;27892;52.378;13.122;2023-07-31T00:24:44;1.50;;;1.40;;
42226;SDS011;27892;52.378;13.122;2023-07-31T00:27:10;1.13;;;1.10;;
42226;SDS011;27892;52.378;13.122;2023-07-31T00:29:36;1.33;;;1.20;;
42226;SDS011;27892;52.378;13.122;2023-07-31T00:32:01;1.33;;;1.27;;
42226;SDS011;27892;52.378;13.122;2023-07-31T00:34:27;1.40;;;1.30;;
42226;SDS011;27892;52.378;13.122;2023-07-31T00:36:53;1.50;;;1.40;;
42226;SDS011;27892;52.378;13.122;2023-07-31T00:39:18;1.47;;;1.37;;
42226;SDS011;27892;52.378;13.122;2023-07-31T00:41:44;1.60;;;1.50;;
42226;SDS011;27892;52.378;13.122;2023-07-31T00:44:10;1.60;;;1.50;;
42226;SDS011;27892;52.378;13.122;2023-07-31T00:46:36;3.00;;;1.90;;
42226;SDS011;27892;52.378;13.122;2023-07-31T00:49:02;2.03;;;1.83;;
42226;SDS011;27892;52.378;13.122;2023-07-31T00:51:28;1.70;;;1.60;;
42226;SDS011;27892;52.378;13.122;2023-07-31T00:53:53;1.47;;;1.37;;
42226;SDS011;27892;52.378;13.122;2023-07-31T00:56:20;1.50;;;1.40;;
42226;SDS011;27892;52.378;13.122;2023-07-31T00:58:47;1.40;;;1.30;;
42226;SDS011;27892;52.378;13.122;2023-07-31T01:01:13;1.40;;;1.30;;
42226;SDS011;27892;52.378;13.122;2023-07-31T01:03:39;1.30;;;1.20;;
42226;SDS011;27892;52.378;13.122;2023-07-31T01:06:09;1.50;;;1.40;;
42226;SDS011;27892;52.378;13.122;2023-07-31T01:08:44;1.40;;;1.30;;
42226;SDS011;27892;52.378;13.122;2023-07-31T01:11:22;1.03;;;1.03;;
42226;SDS011;27892;52.378;13.122;2023-07-31T01:13:53;1.40;;;1.30;;
42226;SDS011;27892;52.378;13.122;2023-07-31T01:16:20;1.50;;;1.40;;
42226;SDS011;27892;52.378;13.122;2023-07-31T01:18:46;1.10;;;1.10;;
42226;SDS011;27892;52.378;13.122;2023-07-31T01:24:20;1.40;;;1.30;;
42226;SDS011;27892;52.378;13.122;2023-07-31T01:27:10;1.00;;;1.00;;
42226;SDS011;27892;52.378;13.122;2023-07-31T01:29:47;1.10;;;1.10;;
42226;SDS011;27892;52.378;13.122;2023-07-31T01:32:22;1.10;;;1.03;;
42226;SDS011;27892;52.378;13.122;2023-07-31T01:34:51;1.17;;;1.17;;
42226;SDS011;27892;52.378;13.122;2023-07-31T01:37:17;1.10;;;1.10;;
42226;SDS011;27892;52.378;13.122;2023-07-31T01:39:43;1.37;;;1.27;;
42226;SDS011;27892;52.378;13.122;2023-07-31T01:42:09;1.30;;;1.30;;
42226;SDS011;27892;52.378;13.122;2023-07-31T01:44:34;1.30;;;1.23;;
42226;SDS011;27892;52.378;13.122;2023-07-31T01:47:00;1.80;;;1.70;;
42226;SDS011;27892;52.378;13.122;2023-07-31T01:49:26;1.30;;;1.30;;
42226;SDS011;27892;52.378;13.122;2023-07-31T01:51:52;1.60;;;1.50;;
42226;SDS011;27892;52.378;13.122;2023-07-31T01:54:17;1.63;;;1.53;;
42226;SDS011;27892;52.378;13.122;2023-07-31T01:56:43;1.70;;;1.60;;
42226;SDS011;27892;52.378;13.122;2023-07-31T01:59:09;2.10;;;1.90;;
42226;SDS011;27892;52.378;13.122;2023-07-31T02:01:34;2.30;;;2.10;;
42226;SDS011;27892;52.378;13.122;2023-07-31T02:04:00;2.20;;;2.00;;
42226;SDS011;27892;52.378;13.122;2023-07-31T02:06:26;1.53;;;1.43;;
42226;SDS011;27892;52.378;13.122;2023-07-31T02:08:52;1.60;;;1.50;;
42226;SDS011;27892;52.378;13.122;2023-07-31T02:11:18;1.30;;;1.30;;
42226;SDS011;27892;52.378;13.122;2023-07-31T02:13:43;1.30;;;1.30;;
42226;SDS011;27892;52.378;13.122;2023-07-31T02:16:09;1.60;;;1.50;;
42226;SDS011;27892;52.378;13.122;2023-07-31T02:18:35;2.07;;;1.90;;
42226;SDS011;27892;52.378;13.122;2023-07-31T02:21:01;1.97;;;1.80;;
42226;SDS011;27892;52.378;13.122;2023-07-31T02:23:26;2.50;;;1.77;;
42226;SDS011;27892;52.378;13.122;2023-07-31T02:25:52;1.83;;;1.70;;
42226;SDS011;27892;52.378;13.122;2023-07-31T02:28:18;1.73;;;1.63;;
42226;SDS011;27892;52.378;13.122;2023-07-31T02:30:44;1.60;;;1.50;;
42226;SDS011;27892;52.378;13.122;2023-07-31T02:33:11;1.90;;;1.80;;
42226;SDS011;27892;52.378;13.122;2023-07-31T02:35:36;3.40;;;2.57;;
42226;SDS011;27892;52.378;13.122;2023-07-31T02:38:02;4.03;;;2.47;;
42226;SDS011;27892;52.378;13.122;2023-07-31T02:40:28;4.30;;;2.20;;
42226;SDS011;27892;52.378;13.122;2023-07-31T02:42:53;2.30;;;1.90;;
42226;SDS011;27892;52.378;13.122;2023-07-31T02:45:19;2.00;;;1.77;;
42226;SDS011;27892;52.378;13.122;2023-07-31T02:48:03;2.10;;;2.00;;
42226;SDS011;27892;52.378;13.122;2023-07-31T02:50:48;2.33;;;2.13;;
42226;SDS011;27892;52.378;13.122;2023-07-31T02:53:32;2.07;;;1.97;;
42226;SDS011;27892;52.378;13.122;2023-07-31T02:56:16;2.00;;;1.90;;
42226;SDS011;27892;52.378;13.122;2023-07-31T02:59:00;2.20;;;1.93;;
42226;SDS011;27892;52.378;13.122;2023-07-31T03:01:44;2.40;;;2.20;;
42226;SDS011;27892;52.378;13.122;2023-07-31T03:04:29;2.10;;;1.90;;
42226;SDS011;27892;52.378;13.122;2023-07-31T03:07:13;2.70;;;2.30;;
42226;SDS011;27892;52.378;13.122;2023-07-31T03:09:57;2.60;;;2.40;;
42226;SDS011;27892;52.378;13.122;2023-07-31T03:12:41;2.63;;;2.43;;
42226;SDS011;27892;52.378;13.122;2023-07-31T03:15:25;2.00;;;1.90;;
42226;SDS011;27892;52.378;13.122;2023-07-31T03:18:09;1.70;;;1.60;;
42226;SDS011;27892;52.378;13.122;2023-07-31T03:20:53;1.67;;;1.57;;
42226;SDS011;27892;52.378;13.122;2023-07-31T03:23:37;2.23;;;1.87;;
42226;SDS011;27892;52.378;13.122;2023-07-31T03:26:22;1.70;;;1.60;;
42226;SDS011;27892;52.378;13.122;2023-07-31T03:29:07;1.60;;;1.50;;
42226;SDS011;27892;52.378;13.122;2023-07-31T03:31:52;1.70;;;1.60;;
42226;SDS011;27892;52.378;13.122;2023-07-31T03:34:36;1.70;;;1.60;;
42226;SDS011;27892;52.378;13.122;2023-07-31T03:37:21;1.90;;;1.80;;
42226;SDS011;27892;52.378;13.122;2023-07-31T03:40:05;2.17;;;2.00;;
42226;SDS011;27892;52.378;13.122;2023-07-31T03:42:49;2.50;;;2.30;;
42226;SDS011;27892;52.378;13.122;2023-07-31T03:45:34;2.13;;;2.03;;
42226;SDS011;27892;52.378;13.122;2023-07-31T03:48:18;2.10;;;2.00;;
42226;SDS011;27892;52.378;13.122;2023-07-31T03:51:02;1.90;;;1.80;;
42226;SDS011;27892;52.378;13.122;2023-07-31T03:53:46;1.87;;;1.77;;
42226;SDS011;27892;52.378;13.122;2023-07-31T03:56:30;1.80;;;1.70;;
42226;SDS011;27892;52.378;13.122;2023-07-31T03:59:14;1.50;;;1.50;;
42226;SDS011;27892;52.378;13.122;2023-07-31T04:01:59;1.97;;;1.60;;
42226;SDS011;27892;52.378;13.122;2023-07-31T04:04:43;2.30;;;2.20;;
42226;SDS011;27892;52.378;13.122;2023-07-31T04:07:27;2.40;;;2.20;;
42226;SDS011;27892;52.378;13.122;2023-07-31T04:10:11;1.80;;;1.70;;
42226;SDS011;27892;52.378;13.122;2023-07-31T04:12:55;1.70;;;1.60;;
42226;SDS011;27892;52.378;13.122;2023-07-31T04:15:39;2.33;;;2.00;;
42226;SDS011;27892;52.378;13.122;2023-07-31T04:18:24;3.07;;;2.53;;
42226;SDS011;27892;52.378;13.122;2023-07-31T04:21:09;2.50;;;2.23;;
42226;SDS011;27892;52.378;13.122;2023-07-31T04:23:53;2.17;;;2.00;;
42226;SDS011;27892;52.378;13.122;2023-07-31T04:26:40;2.60;;;2.40;;
42226;SDS011;27892;52.378;13.122;2023-07-31T04:29:24;3.50;;;2.70;;
42226;SDS011;27892;52.378;13.122;2023-07-31T04:32:08;5.70;;;3.03;;
42226;SDS011;27892;52.378;13.122;2023-07-31T04:34:52;2.90;;;2.70;;
42226;SDS011;27892;52.378;13.122;2023-07-31T04:37:36;2.50;;;2.30;;
42226;SDS011;27892;52.378;13.122;2023-07-31T04:40:22;2.43;;;2.23;;
42226;SDS011;27892;52.378;13.122;2023-07-31T04:43:06;2.83;;;2.60;;
42226;SDS011;27892;52.378;13.122;2023-07-31T04:45:51;4.00;;;2.77;;
42226;SDS011;27892;52.378;13.122;2023-07-31T04:48:37;3.07;;;2.53;;
42226;SDS011;27892;52.378;13.122;2023-07-31T04:51:21;4.67;;;2.10;;
42226;SDS011;27892;52.378;13.122;2023-07-31T04:54:06;2.37;;;2.20;;
42226;SDS011;27892;52.378;13.122;2023-07-31T04:56:50;2.27;;;2.10;;
42226;SDS011;27892;52.378;13.122;2023-07-31T04:59:36;2.20;;;2.00;;
42226;SDS011;27892;52.378;13.122;2023-07-31T05:02:21;1.97;;;1.87;;
42226;SDS011;27892;52.378;13.122;2023-07-31T05:05:05;3.13;;;2.33;;
42226;SDS011;27892;52.378;13.122;2023-07-31T05:07:49;2.20;;;2.10;;
42226;SDS011;27892;52.378;13.122;2023-07-31T05:10:33;2.50;;;2.30;;
42226;SDS011;27892;52.378;13.122;2023-07-31T05:13:18;2.50;;;2.30;;
42226;SDS011;27892;52.378;13.122;2023-07-31T05:16:02;2.40;;;2.00;;
42226;SDS011;27892;52.378;13.122;2023-07-31T05:18:46;2.03;;;1.93;;
42226;SDS011;27892;52.378;13.122;2023-07-31T05:21:30;2.00;;;1.80;;
42226;SDS011;27892;52.378;13.122;2023-07-31T05:24:15;2.10;;;1.87;;
42226;SDS011;27892;52.378;13.122;2023-07-31T05:26:59;1.67;;;1.57;;
42226;SDS011;27892;52.378;13.122;2023-07-31T05:29:44;2.47;;;1.67;;
42226;SDS011;27892;52.378;13.122;2023-07-31T05:32:28;1.70;;;1.60;;
42226;SDS011;27892;52.378;13.122;2023-07-31T05:35:12;1.80;;;1.70;;
42226;SDS011;27892;52.378;13.122;2023-07-31T05:37:56;1.70;;;1.60;;
42226;SDS011;27892;52.378;13.122;2023-07-31T05:40:42;2.13;;;2.03;;
42226;SDS011;27892;52.378;13.122;2023-07-31T05:43:26;1.97;;;1.83;;
42226;SDS011;27892;52.378;13.122;2023-07-31T05:46:11;2.43;;;2.20;;
42226;SDS011;27892;52.378;13.122;2023-07-31T05:48:55;2.00;;;1.73;;
42226;SDS011;27892;52.378;13.122;2023-07-31T05:51:40;1.90;;;1.80;;
42226;SDS011;27892;52.378;13.122;2023-07-31T05:54:24;2.45;;;1.80;;
42226;SDS011;27892;52.378;13.122;2023-07-31T05:57:08;2.50;;;1.60;;
42226;SDS011;27892;52.378;13.122;2023-07-31T05:59:53;1.97;;;1.70;;
42226;SDS011;27892;52.378;13.122;2023-07-31T06:02:37;6.22;;;2.42;;
42226;SDS011;27892;52.378;13.122;2023-07-31T06:05:22;3.80;;;2.42;;
42226;SDS011;27892;52.378;13.122;2023-07-31T06:08:06;3.53;;;2.03;;
42226;SDS011;27892;52.378;13.122;2023-07-31T06:10:50;4.53;;;2.60;;
42226;SDS011;27892;52.378;13.122;2023-07-31T06:13:35;5.90;;;4.05;;
42226;SDS011;27892;52.378;13.122;2023-07-31T06:16:19;5.40;;;4.00;;
42226;SDS011;27892;52.378;13.122;2023-07-31T06:19:05;3.33;;;2.70;;
42226;SDS011;27892;52.378;13.122;2023-07-31T06:21:50;3.60;;;2.10;;
42226;SDS011;27892;52.378;13.122;2023-07-31T06:24:34;3.20;;;2.47;;
42226;SDS011;27892;52.378;13.122;2023-07-31T06:27:19;2.15;;;1.95;;
42226;SDS011;27892;52.378;13.122;2023-07-31T06:30:03;2.20;;;1.70;;
42226;SDS011;27892;52.378;13.122;2023-07-31T06:32:47;2.97;;;2.40;;
42226;SDS011;27892;52.378;13.122;2023-07-31T06:35:31;1.98;;;1.60;;
42226;SDS011;27892;52.378;13.122;2023-07-31T06:38:16;2.28;;;2.00;;
42226;SDS011;27892;52.378;13.122;2023-07-31T06:41:02;1.70;;;1.60;;
42226;SDS011;27892;52.378;13.122;2023-07-31T06:43:47;2.95;;;1.80;;
42226;SDS011;27892;52.378;13.122;2023-07-31T06:46:32;3.47;;;2.00;;
42226;SDS011;27892;52.378;13.122;2023-07-31T06:49:16;2.35;;;2.13;;
42226;SDS011;27892;52.378;13.122;2023-07-31T06:52:00;2.28;;;1.80;;
42226;SDS011;27892;52.378;13.122;2023-07-31T06:57:44;3.05;;;1.80;;
42226;SDS011;27892;52.378;13.122;2023-07-31T07:00:29;2.75;;;1.92;;
42226;SDS011;27892;52.378;13.122;2023-07-31T07:03:13;3.17;;;2.30;;
42226;SDS011;27892;52.378;13.122;2023-07-31T07:05:58;2.65;;;2.40;;
42226;SDS011;27892;52.378;13.122;2023-07-31T07:08:42;2.20;;;2.00;;
42226;SDS011;27892;52.378;13.122;2023-07-31T07:11:26;3.05;;;2.13;;
42226;SDS011;27892;52.378;13.122;2023-07-31T07:14:10;2.05;;;1.85;;
42226;SDS011;27892;52.378;13.122;2023-07-31T07:16:54;2.15;;;1.95;;
42226;SDS011;27892;52.378;13.122;2023-07-31T07:19:41;3.55;;;2.20;;
42226;SDS011;27892;52.378;13.122;2023-07-31T07:22:26;2.80;;;1.83;;
42226;SDS011;27892;52.378;13.122;2023-07-31T07:25:10;2.72;;;2.30;;
42226;SDS011;27892;52.378;13.122;2023-07-31T07:27:36;2.50;;;2.00;;
42226;SDS011;27892;52.378;13.122;2023-07-31T07:30:02;2.90;;;2.20;;
42226;SDS011;27892;52.378;13.122;2023-07-31T07:32:28;2.95;;;2.28;;
42226;SDS011;27892;52.378;13.122;2023-07-31T07:34:55;2.30;;;2.07;;
42226;SDS011;27892;52.378;13.122;2023-07-31T07:37:21;2.40;;;2.17;;
42226;SDS011;27892;52.378;13.122;2023-07-31T07:39:47;2.70;;;2.22;;
42226;SDS011;27892;52.378;13.122;2023-07-31T07:42:12;2.37;;;2.00;;
42226;SDS011;27892;52.378;13.122;2023-07-31T07:44:38;3.25;;;2.45;;
42226;SDS011;27892;52.378;13.122;2023-07-31T07:47:03;1.90;;;1.80;;
42226;SDS011;27892;52.378;13.122;2023-07-31T07:49:31;1.83;;;1.73;;
42226;SDS011;27892;52.378;13.122;2023-07-31T07:51:57;1.55;;;1.45;;
42226;SDS011;27892;52.378;13.122;2023-07-31T07:54:23;2.50;;;2.28;;
42226;SDS011;27892;52.378;13.122;2023-07-31T07:56:48;3.15;;;2.40;;
42226;SDS011;27892;52.378;13.122;2023-07-31T07:59:14;5.03;;;3.37;;
42226;SDS011;27892;52.378;13.122;2023-07-31T08:01:40;2.58;;;2.38;;
42226;SDS011;27892;52.378;13.122;2023-07-31T08:04:06;3.38;;;2.60;;
42226;SDS011;27892;52.378;13.122;2023-07-31T08:06:31;2.63;;;2.13;;
42226;SDS011;27892;52.378;13.122;2023-07-31T08:08:57;2.50;;;2.30;;
42226;SDS011;27892;52.378;13.122;2023-07-31T08:11:23;3.45;;;2.30;;
42226;SDS011;27892;52.378;13.122;2023-07-31T08:13:49;2.10;;;2.00;;
42226;SDS011;27892;52.378;13.122;2023-07-31T08:16:14;2.00;;;1.80;;
42226;SDS011;27892;52.378;13.122;2023-07-31T08:18:40;1.70;;;1.60;;
42226;SDS011;27892;52.378;13.122;2023-07-31T08:21:07;2.22;;;1.73;;
42226;SDS011;27892;52.378;13.122;2023-07-31T08:23:33;2.20;;;2.00;;
42226;SDS011;27892;52.378;13.122;2023-07-31T08:25:59;1.48;;;1.42;;
42226;SDS011;27892;52.378;13.122;2023-07-31T08:28:24;2.17;;;2.00;;
42226;SDS011;27892;52.378;13.122;2023-07-31T08:30:50;3.00;;;2.20;;
42226;SDS011;27892;52.378;13.122;2023-07-31T08:33:16;2.33;;;2.10;;
42226;SDS011;27892;52.378;13.122;2023-07-31T08:35:44;2.60;;;1.90;;
42226;SDS011;27892;52.378;13.122;2023-07-31T08:38:10;1.85;;;1.73;;
42226;SDS011;27892;52.378;13.122;2023-07-31T08:40:37;2.10;;;1.90;;
42226;SDS011;27892;52.378;13.122;2023-07-31T08:43:05;1.80;;;1.63;;
42226;SDS011;27892;52.378;13.122;2023-07-31T08:45:32;1.65;;;1.55;;
42226;SDS011;27892;52.378;13.122;2023-07-31T08:47:59;1.73;;;1.63;;
42226;SDS011;27892;52.378;13.122;2023-07-31T08:50:24;1.52;;;1.40;;
42226;SDS011;27892;52.378;13.122;2023-07-31T08:52:50;1.55;;;1.48;;
42226;SDS011;27892;52.378;13.122;2023-07-31T08:55:17;1.33;;;1.33;;
42226;SDS011;27892;52.378;13.122;2023-07-31T08:57:48;1.17;;;1.17;;
42226;SDS011;27892;52.378;13.122;2023-07-31T09:00:17;1.40;;;1.30;;
42226;SDS011;27892;52.378;13.122;2023-07-31T09:02:46;1.10;;;1.10;;
42226;SDS011;27892;52.378;13.122;2023-07-31T09:05:17;1.20;;;1.10;;
42226;SDS011;27892;52.378;13.122;2023-07-31T09:07:45;1.15;;;1.10;;
42226;SDS011;27892;52.378;13.122;2023-07-31T09:10:12;1.45;;;1.02;;
42226;SDS011;27892;52.378;13.122;2023-07-31T09:12:38;0.93;;;0.90;;
42226;SDS011;27892;52.378;13.122;2023-07-31T09:15:04;1.00;;;1.00;;
42226;SDS011;27892;52.378;13.122;2023-07-31T09:17:31;3.65;;;3.35;;
42226;SDS011;27892;52.378;13.122;2023-07-31T09:19:59;2.13;;;2.03;;
42226;SDS011;27892;52.378;13.122;2023-07-31T09:22:45;1.60;;;1.50;;
42226;SDS011;27892;52.378;13.122;2023-07-31T09:25:16;1.60;;;1.50;;
42226;SDS011;27892;52.378;13.122;2023-07-31T09:27:50;1.80;;;1.70;;
42226;SDS011;27892;52.378;13.122;2023-07-31T09:30:20;1.20;;;1.20;;
42226;SDS011;27892;52.378;13.122;2023-07-31T09:32:46;1.90;;;1.80;;
42226;SDS011;27892;52.378;13.122;2023-07-31T09:37:39;2.22;;;1.90;;
42226;SDS011;27892;52.378;13.122;2023-07-31T09:40:05;2.10;;;1.90;;
42226;SDS011;27892;52.378;13.122;2023-07-31T09:42:31;2.55;;;2.10;;
42226;SDS011;27892;52.378;13.122;2023-07-31T09:45:06;3.45;;;2.30;;
42226;SDS011;27892;52.378;13.122;2023-07-31T09:47:33;4.45;;;2.30;;
42226;SDS011;27892;52.378;13.122;2023-07-31T09:49:59;2.85;;;2.40;;
42226;SDS011;27892;52.378;13.122;2023-07-31T09:52:25;3.67;;;2.75;;
42226;SDS011;27892;52.378;13.122;2023-07-31T09:54:52;5.10;;;2.72;;
42226;SDS011;27892;52.378;13.122;2023-07-31T09:57:18;4.72;;;2.70;;
42226;SDS011;27892;52.378;13.122;2023-07-31T09:59:47;2.60;;;2.40;;
42226;SDS011;27892;52.378;13.122;2023-07-31T10:02:15;3.35;;;2.70;;
42226;SDS011;27892;52.378;13.122;2023-07-31T10:04:45;3.42;;;2.60;;
42226;SDS011;27892;52.378;13.122;2023-07-31T10:07:14;4.85;;;3.00;;
42226;SDS011;27892;52.378;13.122;2023-07-31T10:09:43;2.50;;;2.30;;
42226;SDS011;27892;52.378;13.122;2023-07-31T10:12:09;5.35;;;3.40;;
42226;SDS011;27892;52.378;13.122;2023-07-31T10:14:37;4.55;;;2.63;;
42226;SDS011;27892;52.378;13.122;2023-07-31T10:17:04;4.03;;;2.80;;
42226;SDS011;27892;52.378;13.122;2023-07-31T10:19:31;3.30;;;2.65;;
42226;SDS011;27892;52.378;13.122;2023-07-31T10:21:57;3.38;;;2.72;;
42226;SDS011;27892;52.378;13.122;2023-07-31T10:24:24;2.72;;;2.53;;
42226;SDS011;27892;52.378;13.122;2023-07-31T10:26:52;4.13;;;2.90;;
42226;SDS011;27892;52.378;13.122;2023-07-31T10:29:18;3.90;;;2.80;;
42226;SDS011;27892;52.378;13.122;2023-07-31T10:31:45;2.80;;;2.58;;
42226;SDS011;27892;52.378;13.122;2023-07-31T10:34:12;2.63;;;2.30;;
42226;SDS011;27892;52.378;13.122;2023-07-31T10:36:39;10.52;;;7.28;;
42226;SDS011;27892;52.378;13.122;2023-07-31T10:39:05;8.90;;;5.70;;
42226;SDS011;27892;52.378;13.122;2023-07-31T10:42:09;9.27;;;5.30;;
42226;SDS011;27892;52.378;13.122;2023-07-31T10:44:35;4.03;;;3.05;;
42226;SDS011;27892;52.378;13.122;2023-07-31T10:47:01;2.63;;;2.42;;
42226;SDS011;27892;52.378;13.122;2023-07-31T10:49:27;3.40;;;2.45;;
42226;SDS011;27892;52.378;13.122;2023-07-31T10:51:56;3.15;;;2.63;;
42226;SDS011;27892;52.378;13.122;2023-07-31T10:54:22;3.88;;;2.67;;
42226;SDS011;27892;52.378;13.122;2023-07-31T10:56:51;3.70;;;2.55;;
42226;SDS011;27892;52.378;13.122;2023-07-31T10:59:17;4.05;;;2.50;;
42226;SDS011;27892;52.378;13.122;2023-07-31T11:01:52;2.53;;;2.00;;
42226;SDS011;27892;52.378;13.122;2023-07-31T11:04:26;3.88;;;2.58;;
42226;SDS011;27892;52.378;13.122;2023-07-31T11:06:58;3.38;;;2.45;;
42226;SDS011;27892;52.378;13.122;2023-07-31T11:09:29;2.92;;;2.40;;
42226;SDS011;27892;52.378;13.122;2023-07-31T11:11:57;3.22;;;2.40;;
42226;SDS011;27892;52.378;13.122;2023-07-31T11:14:23;2.85;;;1.90;;
42226;SDS011;27892;52.378;13.122;2023-07-31T11:16:50;2.50;;;2.03;;
42226;SDS011;27892;52.378;13.122;2023-07-31T11:19:22;2.03;;;1.90;;
42226;SDS011;27892;52.378;13.122;2023-07-31T11:21:51;3.75;;;2.30;;
42226;SDS011;27892;52.378;13.122;2023-07-31T11:24:18;2.10;;;1.90;;
42226;SDS011;27892;52.378;13.122;2023-07-31T11:26:49;3.20;;;2.20;;
42226;SDS011;27892;52.378;13.122;2023-07-31T11:29:15;3.55;;;2.50;;
42226;SDS011;27892;52.378;13.122;2023-07-31T11:31:42;4.10;;;2.50;;
42226;SDS011;27892;52.378;13.122;2023-07-31T11:34:08;2.75;;;2.20;;
42226;SDS011;27892;52.378;13.122;2023-07-31T11:36:33;3.17;;;2.28;;
42226;SDS011;27892;52.378;13.122;2023-07-31T11:39:08;2.95;;;2.53;;
42226;SDS011;27892;52.378;13.122;2023-07-31T11:41:34;2.58;;;2.20;;
42226;SDS011;27892;52.378;13.122;2023-07-31T11:44:00;3.35;;;2.38;;
42226;SDS011;27892;52.378;13.122;2023-07-31T11:46:27;3.85;;;2.42;;
42226;SDS011;27892;52.378;13.122;2023-07-31T11:48:58;2.38;;;2.17;;
42226;SDS011;27892;52.378;13.122;2023-07-31T11:51:25;2.70;;;2.30;;
42226;SDS011;27892;52.378;13.122;2023-07-31T11:53:53;3.13;;;2.40;;
42226;SDS011;27892;52.378;13.122;2023-07-31T11:56:22;2.75;;;2.42;;
42226;SDS011;27892;52.378;13.122;2023-07-31T11:58:50;2.55;;;2.35;;
42226;SDS011;27892;52.378;13.122;2023-07-31T12:01:20;5.93;;;2.60;;
42226;SDS011;27892;52.378;13.122;2023-07-31T12:03:47;3.35;;;2.47;;
42226;SDS011;27892;52.378;13.122;2023-07-31T12:06:13;2.30;;;2.10;;
42226;SDS011;27892;52.378;13.122;2023-07-31T12:08:38;3.33;;;2.45;;
42226;SDS011;27892;52.378;13.122;2023-07-31T12:11:04;2.45;;;2.17;;
42226;SDS011;27892;52.378;13.122;2023-07-31T12:13:32;2.60;;;2.10;;
42226;SDS011;27892;52.378;13.122;2023-07-31T12:15:59;2.22;;;2.03;;
42226;SDS011;27892;52.378;13.122;2023-07-31T12:18:29;3.30;;;2.60;;
42226;SDS011;27892;52.378;13.122;2023-07-31T12:21:01;2.30;;;2.10;;
42226;SDS011;27892;52.378;13.122;2023-07-31T12:23:30;2.40;;;2.20;;
42226;SDS011;27892;52.378;13.122;2023-07-31T12:26:00;2.38;;;2.13;;
42226;SDS011;27892;52.378;13.122;2023-07-31T12:28:34;2.03;;;1.92;;
42226;SDS011;27892;52.378;13.122;2023-07-31T12:31:18;3.92;;;2.60;;
42226;SDS011;27892;52.378;13.122;2023-07-31T12:33:46;3.97;;;2.50;;
42226;SDS011;27892;52.378;13.122;2023-07-31T12:36:16;3.38;;;2.80;;
42226;SDS011;27892;52.378;13.122;2023-07-31T12:38:44;3.20;;;2.45;;
42226;SDS011;27892;52.378;13.122;2023-07-31T12:41:10;2.95;;;2.10;;
42226;SDS011;27892;52.378;13.122;2023-07-31T12:43:37;2.10;;;1.90;;
42226;SDS011;27892;52.378;13.122;2023-07-31T12:46:04;2.33;;;2.13;;
42226;SDS011;27892;52.378;13.122;2023-07-31T12:48:31;3.45;;;2.00;;
42226;SDS011;27892;52.378;13.122;2023-07-31T12:50:56;2.03;;;1.88;;
42226;SDS011;27892;52.378;13.122;2023-07-31T12:53:22;2.60;;;1.77;;
42226;SDS011;27892;52.378;13.122;2023-07-31T12:55:48;2.40;;;2.20;;
42226;SDS011;27892;52.378;13.122;2023-07-31T12:58:15;2.50;;;2.30;;
42226;SDS011;27892;52.378;13.122;2023-07-31T13:00:40;1.95;;;1.85;;
42226;SDS011;27892;52.378;13.122;2023-07-31T13:03:06;3.78;;;2.30;;
42226;SDS011;27892;52.378;13.122;2023-07-31T13:05:32;4.10;;;2.47;;
42226;SDS011;27892;52.378;13.122;2023-07-31T13:07:57;3.45;;;2.30;;
42226;SDS011;27892;52.378;13.122;2023-07-31T13:10:23;3.15;;;2.50;;
42226;SDS011;27892;52.378;13.122;2023-07-31T13:12:49;2.60;;;2.35;;
42226;SDS011;27892;52.378;13.122;2023-07-31T13:15:15;2.20;;;2.00;;
42226;SDS011;27892;52.378;13.122;2023-07-31T13:17:41;3.08;;;2.25;;
42226;SDS011;27892;52.378;13.122;2023-07-31T13:20:07;2.95;;;2.08;;
42226;SDS011;27892;52.378;13.122;2023-07-31T13:22:33;3.55;;;2.45;;
42226;SDS011;27892;52.378;13.122;2023-07-31T13:24:59;3.60;;;2.60;;
42226;SDS011;27892;52.378;13.122;2023-07-31T13:27:25;2.58;;;2.30;;
42226;SDS011;27892;52.378;13.122;2023-07-31T13:29:51;2.65;;;2.40;;
42226;SDS011;27892;52.378;13.122;2023-07-31T13:32:17;2.90;;;2.30;;
42226;SDS011;27892;52.378;13.122;2023-07-31T13:34:44;3.60;;;2.35;;
42226;SDS011;27892;52.378;13.122;2023-07-31T13:37:10;3.30;;;2.33;;
42226;SDS011;27892;52.378;13.122;2023-07-31T13:39:36;3.85;;;2.40;;
42226;SDS011;27892;52.378;13.122;2023-07-31T13:42:05;3.03;;;2.53;;
42226;SDS011;27892;52.378;13.122;2023-07-31T13:44:33;2.25;;;2.05;;
42226;SDS011;27892;52.378;13.122;2023-07-31T13:47:00;3.13;;;2.22;;
42226;SDS011;27892;52.378;13.122;2023-07-31T13:49:26;2.40;;;2.20;;
42226;SDS011;27892;52.378;13.122;2023-07-31T13:51:52;6.72;;;4.88;;
42226;SDS011;27892;52.378;13.122;2023-07-31T13:54:17;7.45;;;5.40;;
42226;SDS011;27892;52.378;13.122;2023-07-31T13:56:43;4.80;;;3.65;;
42226;SDS011;27892;52.378;13.122;2023-07-31T13:59:09;4.00;;;2.92;;
42226;SDS011;27892;52.378;13.122;2023-07-31T14:01:35;5.03;;;3.17;;
42226;SDS011;27892;52.378;13.122;2023-07-31T14:04:01;2.70;;;2.50;;
42226;SDS011;27892;52.378;13.122;2023-07-31T14:06:27;2.90;;;2.28;;
42226;SDS011;27892;52.378;13.122;2023-07-31T14:08:53;2.40;;;2.20;;
42226;SDS011;27892;52.378;13.122;2023-07-31T14:11:18;3.83;;;2.40;;
42226;SDS011;27892;52.378;13.122;2023-07-31T14:13:44;2.60;;;2.40;;
42226;SDS011;27892;52.378;13.122;2023-07-31T14:16:10;3.92;;;2.40;;
42226;SDS011;27892;52.378;13.122;2023-07-31T14:18:35;2.53;;;2.28;;
42226;SDS011;27892;52.378;13.122;2023-07-31T14:21:01;4.82;;;2.80;;
42226;SDS011;27892;52.378;13.122;2023-07-31T14:23:27;2.53;;;2.17;;
42226;SDS011;27892;52.378;13.122;2023-07-31T14:25:52;2.30;;;2.10;;
42226;SDS011;27892;52.378;13.122;2023-07-31T14:28:18;1.98;;;1.83;;
42226;SDS011;27892;52.378;13.122;2023-07-31T14:30:44;2.30;;;2.10;;
42226;SDS011;27892;52.378;13.122;2023-07-31T14:33:09;2.67;;;2.45;;
42226;SDS011;27892;52.378;13.122;2023-07-31T14:35:35;4.22;;;2.40;;
42226;SDS011;27892;52.378;13.122;2023-07-31T14:38:01;3.45;;;2.35;;
42226;SDS011;27892;52.378;13.122;2023-07-31T14:40:26;2.65;;;2.30;;
42226;SDS011;27892;52.378;13.122;2023-07-31T14:42:52;2.30;;;2.10;;
42226;SDS011;27892;52.378;13.122;2023-07-31T14:45:18;2.40;;;2.20;;
42226;SDS011;27892;52.378;13.122;2023-07-31T14:47:43;2.53;;;2.22;;
42226;SDS011;27892;52.378;13.122;2023-07-31T14:50:09;2.53;;;2.33;;
42226;SDS011;27892;52.378;13.122;2023-07-31T14:52:35;2.53;;;2.33;;
42226;SDS011;27892;52.378;13.122;2023-07-31T14:55:01;3.47;;;2.33;;
42226;SDS011;27892;52.378;13.122;2023-07-31T14:57:27;3.63;;;2.53;;
42226;SDS011;27892;52.378;13.122;2023-07-31T14:59:52;3.10;;;2.42;;
42226;SDS011;27892;52.378;13.122;2023-07-31T15:02:18;2.58;;;2.20;;
42226;SDS011;27892;52.378;13.122;2023-07-31T15:04:44;2.78;;;2.50;;
42226;SDS011;27892;52.378;13.122;2023-07-31T15:07:09;3.45;;;2.80;;
42226;SDS011;27892;52.378;13.122;2023-07-31T15:09:35;2.88;;;2.50;;
42226;SDS011;27892;52.378;13.122;2023-07-31T15:12:01;2.85;;;2.33;;